Time;durP1;ratioP1;P1;durP2;ratioP2;P2;SDS_P1;SDS_P2;PMS_P1;PMS_P2;Temp;Humidity;BMP_temperature;BMP_pressure;BME280_temperature;BME280_humidity;BME280_pressure;Samples;Min_cycle;Max_cycle;Signal;HPM_P1;HPM_P2
2021/11/07 00:02:01;76083.00;0.25;132.27;0.00;0.00;0.62;;;;;8.80;1.00;;;;;;2256853;61;986;-84
2021/11/07 00:04:36;87340.00;0.29;151.71;0.00;0.00;0.62;;;;;9.20;1.00;;;;;;2256786;61;982;-83
2021/11/07 00:07:14;10988.00;0.04;19.66;0.00;0.00;0.62;;;;;9.90;1.60;;;;;;2261982;61;1435;-84
2021/11/07 00:09:47;196201.00;0.65;339.38;0.00;0.00;0.62;;;;;9.40;1.00;;;;;;2261840;61;986;-82
2021/11/07 00:12:16;49608.00;0.17;86.51;0.00;0.00;0.62;;;;;8.50;1.00;;;;;;2265521;61;926;-81
2021/11/07 00:14:48;44766.00;0.15;78.13;0.00;0.00;0.62;;;;;8.00;1.00;;;;;;2261731;61;1007;-84
2021/11/07 00:17:16;0.00;0.00;0.62;0.00;0.00;0.62;;;;;8.80;1.60;;;;;;2265506;61;2001;-84
2021/11/07 00:19:46;56541.00;0.19;98.50;0.00;0.00;0.62;;;;;9.50;1.00;;;;;;2261662;61;983;-83
2021/11/07 00:22:16;15740.00;0.05;27.89;0.00;0.00;0.62;;;;;10.40;2.00;;;;;;2261114;61;967;-83
2021/11/07 00:24:47;97724.00;0.33;169.64;0.00;0.00;0.62;;;;;10.50;1.00;;;;;;2261595;61;975;-84
2021/11/07 00:27:24;276443.00;0.92;477.42;94394.00;0.31;163.89;;;;;11.10;1.00;;;;;;2258175;61;1279;-83
2021/11/07 00:29:59;65232.00;0.22;113.52;0.00;0.00;0.62;;;;;11.20;1.00;;;;;;2261655;61;1017;-84
2021/11/07 00:32:33;16664.00;0.06;29.49;0.00;0.00;0.62;;;;;11.20;1.00;;;;;;2258440;61;1029;-83
2021/11/07 00:37:47;173478.00;0.58;300.26;86622.00;0.29;150.47;;;;;11.30;1.00;;;;;;2265406;61;1926;-82
2021/11/07 00:40:24;45823.00;0.15;79.96;0.00;0.00;0.62;;;;;11.20;1.00;;;;;;2265125;61;990;-83
2021/11/07 00:42:55;76486.00;0.25;132.97;0.00;0.00;0.62;;;;;10.50;1.00;;;;;;2261766;61;998;-83
2021/11/07 00:45:30;470745.00;1.57;811.47;126669.00;0.42;219.58;;;;;10.60;1.00;;;;;;2265463;61;906;-83
2021/11/07 00:48:08;12258.00;0.04;21.86;0.00;0.00;0.62;;;;;11.00;1.00;;;;;;2261586;61;1437;-81
2021/11/07 00:50:45;6383.00;0.02;11.68;0.00;0.00;0.62;;;;;10.40;1.00;;;;;;2264942;61;987;-83
2021/11/07 00:56:02;404260.00;1.35;697.13;94237.00;0.31;163.62;;;;;10.90;1.00;;;;;;2256709;61;1912;-80
2021/11/07 00:58:35;142329.00;0.47;246.59;10148.00;0.03;18.21;;;;;11.00;1.00;;;;;;2250159;61;1500;-83
2021/11/07 01:01:06;0.00;0.00;0.62;0.00;0.00;0.62;;;;;11.40;1.00;;;;;;2253430;61;970;-83
2021/11/07 01:03:33;136620.00;0.46;236.74;0.00;0.00;0.62;;;;;11.80;1.00;;;;;;2256728;61;942;-83
2021/11/07 01:06:00;0.00;0.00;0.62;0.00;0.00;0.62;;;;;11.20;1.00;;;;;;2256777;61;935;-84
2021/11/07 01:08:27;22686.00;0.08;39.92;0.00;0.00;0.62;;;;;10.40;1.00;;;;;;2256866;61;1492;-83
2021/11/07 01:10:54;43955.00;0.15;76.73;0.00;0.00;0.62;;;;;10.70;1.00;;;;;;2256734;61;1012;-82
2021/11/07 01:13:21;24180.00;0.08;42.51;0.00;0.00;0.62;;;;;10.60;1.00;;;;;;2247970;61;1046;-80
2021/11/07 01:15:48;51952.00;0.17;90.56;0.00;0.00;0.62;;;;;10.80;1.00;;;;;;2248647;61;1987;-83
2021/11/07 01:18:17;121887.00;0.41;211.34;0.00;0.00;0.62;;;;;10.90;1.00;;;;;;2245274;61;1304;-83
2021/11/07 01:20:44;41183.00;0.14;71.94;0.00;0.00;0.62;;;;;11.10;1.00;;;;;;2251808;61;1000;-83
2021/11/07 01:23:16;20359.00;0.07;35.89;0.00;0.00;0.62;;;;;11.10;1.00;;;;;;2248825;61;1073;-83
2021/11/07 01:25:45;0.00;0.00;0.62;0.00;0.00;0.62;;;;;9.80;1.00;;;;;;2252691;61;979;-83
2021/11/07 01:28:13;435101.00;1.45;750.16;99485.00;0.33;172.68;;;;;8.90;1.00;;;;;;2245559;61;1315;-82
2021/11/07 01:30:47;510865.00;1.70;880.53;131137.00;0.44;227.29;;;;;9.40;1.00;;;;;;2250511;61;966;-83
2021/11/07 01:33:19;74525.00;0.25;129.58;0.00;0.00;0.62;;;;;10.30;1.60;;;;;;2259681;61;988;-84
2021/11/07 01:35:52;193097.00;0.64;334.04;0.00;0.00;0.62;;;;;10.20;1.00;;;;;;2257863;61;1018;-84
2021/11/07 01:38:24;42434.00;0.14;74.10;0.00;0.00;0.62;;;;;9.20;1.00;;;;;;2264699;61;1306;-84
2021/11/07 01:41:01;112567.00;0.38;195.26;0.00;0.00;0.62;;;;;7.90;1.00;;;;;;2258145;61;1004;-83
2021/11/07 01:43:28;30665.00;0.10;53.73;0.00;0.00;0.62;;;;;8.00;1.00;;;;;;2258149;61;989;-84
2021/11/07 01:48:28;147102.00;0.49;254.81;0.00;0.00;0.62;;;;;7.40;1.00;;;;;;2262667;61;1424;-85
2021/11/07 01:50:57;25033.00;0.08;43.98;0.00;0.00;0.62;;;;;7.20;2.50;;;;;;2261249;61;1013;-85
2021/11/07 01:53:30;641779.00;2.14;1106.42;77948.00;0.26;135.49;;;;;7.00;1.00;;;;;;2257158;61;983;-83
2021/11/07 01:55:58;209107.00;0.70;361.60;0.00;0.00;0.62;;;;;6.80;1.00;;;;;;2472610;40;4137;31
2021/11/07 01:58:27;105743.00;0.35;183.48;0.00;0.00;0.62;;;;;6.60;1.20;;;;;;2263105;61;1393;-84
2021/11/07 02:00:55;162066.00;0.54;280.60;0.00;0.00;0.62;;;;;7.30;1.00;;;;;;2257610;61;995;-85
2021/11/07 02:03:24;9340.00;0.03;16.81;0.00;0.00;0.62;;;;;8.20;2.10;;;;;;2261282;61;994;-83
2021/11/07 02:05:52;44565.00;0.15;77.79;0.00;0.00;0.62;;;;;8.50;1.00;;;;;;2261256;61;1083;-84
2021/11/07 02:08:20;72208.00;0.24;125.58;0.00;0.00;0.62;;;;;9.00;1.00;;;;;;2257682;61;1284;-85
2021/11/07 02:10:49;94150.00;0.31;163.47;0.00;0.00;0.62;;;;;9.30;1.00;;;;;;2257780;61;992;-84
2021/11/07 02:20:42;102739.00;0.34;178.30;0.00;0.00;0.62;;;;;9.40;1.00;;;;;;2262662;61;1352;-84
2021/11/07 02:25:38;506876.00;1.69;873.66;94068.00;0.31;163.33;;;;;10.20;1.00;;;;;;2262970;61;1421;-84
2021/11/07 02:30:35;45753.00;0.15;79.84;0.00;0.00;0.62;;;;;10.40;1.00;;;;;;2262797;61;1400;-83
2021/11/07 02:33:03;287032.00;0.96;495.63;0.00;0.00;0.62;;;;;10.80;1.00;;;;;;2254268;61;998;-84
2021/11/07 02:35:30;26850.00;0.09;47.13;0.00;0.00;0.62;;;;;11.20;1.00;;;;;;2257534;61;963;-84
2021/11/07 02:37:59;118016.00;0.39;204.66;0.00;0.00;0.62;;;;;11.20;1.00;;;;;;2256688;61;1912;-81
2021/11/07 02:42:54;59491.00;0.20;103.60;0.00;0.00;0.62;;;;;10.80;1.00;;;;;;2262181;61;1281;-82
2021/11/07 02:45:22;130912.00;0.44;226.90;0.00;0.00;0.62;;;;;10.50;1.00;;;;;;2256474;61;959;-83
2021/11/07 02:47:51;28797.00;0.10;50.50;0.00;0.00;0.62;;;;;10.30;1.00;;;;;;2246929;61;1346;-84
2021/11/07 02:52:49;90343.00;0.30;156.90;0.00;0.00;0.62;;;;;8.80;1.00;;;;;;2262933;61;1368;-83
2021/11/07 02:55:21;82994.00;0.28;144.21;0.00;0.00;0.62;;;;;9.40;1.00;;;;;;2257481;61;996;-86
2021/11/07 03:02:43;23285.00;0.08;40.96;0.00;0.00;0.62;;;;;11.10;1.00;;;;;;2279911;40;3732;31
2021/11/07 03:05:14;297838.00;0.99;514.20;0.00;0.00;0.62;;;;;11.20;1.00;;;;;;2261788;61;1341;-83
2021/11/07 03:07:42;43224.00;0.14;75.47;0.00;0.00;0.62;;;;;11.50;1.00;;;;;;2257021;61;1366;-83
2021/11/07 03:10:11;29148.00;0.10;51.11;0.00;0.00;0.62;;;;;11.60;1.00;;;;;;2261141;61;1032;-84
2021/11/07 03:12:39;59646.00;0.20;103.86;0.00;0.00;0.62;;;;;11.60;1.00;;;;;;2257441;61;1007;-81
2021/11/07 03:15:11;42742.00;0.14;74.63;0.00;0.00;0.62;;;;;11.30;1.00;;;;;;2257436;61;1006;-84
2021/11/07 03:22:34;56687.00;0.19;98.75;0.00;0.00;0.62;;;;;11.30;1.00;;;;;;2262370;61;1401;-82
2021/11/07 03:25:03;0.00;0.00;0.62;0.00;0.00;0.62;;;;;11.70;1.00;;;;;;2257502;61;996;-84
2021/11/07 03:30:04;392862.00;1.31;677.53;86411.00;0.29;150.11;;;;;11.40;1.00;;;;;;2262647;61;1365;-83
2021/11/07 03:32:32;15252.00;0.05;27.05;0.00;0.00;0.62;;;;;11.10;1.00;;;;;;2257203;61;947;-84
2021/11/07 03:35:03;13522.00;0.05;24.05;0.00;0.00;0.62;;;;;11.50;1.00;;;;;;2260975;61;1010;-84
2021/11/07 03:40:00;32006.00;0.11;56.06;0.00;0.00;0.62;;;;;11.40;1.00;;;;;;2262946;61;1400;-84
2021/11/07 03:42:29;69655.00;0.23;121.16;0.00;0.00;0.62;;;;;11.70;1.00;;;;;;2254745;61;966;-83
2021/11/07 03:44:57;86475.00;0.29;150.22;0.00;0.00;0.62;;;;;11.80;1.00;;;;;;2261340;61;962;-83
2021/11/07 03:47:25;18466.00;0.06;32.61;0.00;0.00;0.62;;;;;11.60;1.00;;;;;;2254703;61;1417;-84
2021/11/07 03:49:54;25522.00;0.09;44.83;0.00;0.00;0.62;;;;;11.40;1.00;;;;;;2258101;61;997;-84
2021/11/07 03:52:21;67677.00;0.23;117.75;0.00;0.00;0.62;;;;;10.70;1.00;;;;;;2257875;61;1107;-84
2021/11/07 03:54:49;47237.00;0.16;82.41;0.00;0.00;0.62;;;;;10.20;1.00;;;;;;2258000;61;953;-83
2021/11/07 03:57:15;119638.00;0.40;207.46;0.00;0.00;0.62;;;;;10.30;1.00;;;;;;2257871;61;1927;-83
2021/11/07 03:59:45;89528.00;0.30;155.49;0.00;0.00;0.62;;;;;10.70;1.00;;;;;;2257889;61;994;-84
2021/11/07 04:02:14;371114.00;1.24;640.15;85595.00;0.29;148.70;;;;;11.00;1.00;;;;;;2257820;61;981;-83
2021/11/07 04:04:43;32335.00;0.11;56.62;0.00;0.00;0.62;;;;;11.00;1.00;;;;;;2258157;61;971;-83
2021/11/07 04:07:10;79461.00;0.26;138.11;0.00;0.00;0.62;;;;;10.10;1.00;;;;;;2258048;61;1362;-82
2021/11/07 04:09:37;151232.00;0.50;261.93;0.00;0.00;0.62;;;;;8.80;1.00;;;;;;2257849;61;1182;-84
2021/11/07 04:12:05;164901.00;0.55;285.48;0.00;0.00;0.62;;;;;7.40;1.00;;;;;;2257952;61;951;-82
2021/11/07 04:14:34;284843.00;0.95;491.86;93300.00;0.31;162.01;;;;;6.80;1.00;;;;;;2257998;61;982;-82
2021/11/07 04:17:02;91046.00;0.30;158.11;0.00;0.00;0.62;;;;;6.90;1.00;;;;;;2257740;61;1924;-84
2021/11/07 04:24:26;363760.00;1.21;627.51;94875.00;0.32;164.72;;;;;7.60;1.00;;;;;;2263259;61;1192;-82
2021/11/07 04:26:52;107132.00;0.36;185.88;0.00;0.00;0.62;;;;;7.60;1.00;;;;;;2261433;61;1403;-82
2021/11/07 04:29:20;472507.00;1.58;814.50;92595.00;0.31;160.79;;;;;8.10;2.80;;;;;;2263999;61;1188;-83
2021/11/07 04:31:46;179150.00;0.60;310.03;0.00;0.00;0.62;;;;;8.60;1.00;;;;;;2261572;61;885;-82
2021/11/07 04:34:14;62491.00;0.21;108.78;0.00;0.00;0.62;;;;;7.80;1.00;;;;;;2257815;61;946;-83
2021/11/07 04:36:41;493029.00;1.64;849.82;96673.00;0.32;167.83;;;;;8.30;1.00;;;;;;2261347;61;2007;-83
2021/11/07 04:39:08;249847.00;0.83;431.69;0.00;0.00;0.62;;;;;7.80;1.00;;;;;;2254371;61;1020;-83
2021/11/07 04:41:37;194082.00;0.65;335.74;0.00;0.00;0.62;;;;;7.50;1.00;;;;;;2261029;61;1000;-84
2021/11/07 04:44:04;181327.00;0.60;313.77;0.00;0.00;0.62;;;;;8.10;1.00;;;;;;2261292;61;922;-83
2021/11/07 04:46:31;118554.00;0.40;205.59;0.00;0.00;0.62;;;;;9.20;2.80;;;;;;2261306;61;1365;-84
2021/11/07 04:48:58;56654.00;0.19;98.69;0.00;0.00;0.62;;;;;9.60;1.00;;;;;;2264100;61;1006;-84
2021/11/07 04:51:25;264035.00;0.88;456.09;0.00;0.00;0.62;;;;;8.80;1.00;;;;;;2261274;61;993;-84
2021/11/07 04:53:52;42485.00;0.14;74.19;0.00;0.00;0.62;;;;;8.20;1.00;;;;;;2257116;61;1009;-84
2021/11/07 04:56:19;131384.00;0.44;227.72;0.00;0.00;0.62;;;;;8.30;1.00;;;;;;2257457;61;1405;-83
2021/11/07 04:58:47;54591.00;0.18;95.13;0.00;0.00;0.62;;;;;8.50;1.00;;;;;;2505977;40;4097;31
2021/11/07 05:01:14;75045.00;0.25;130.48;0.00;0.00;0.62;;;;;8.70;1.00;;;;;;2257203;61;1336;-83
2021/11/07 05:03:42;276675.00;0.92;477.82;7932.00;0.03;14.37;;;;;9.00;1.00;;;;;;2253328;61;1060;-84
2021/11/07 05:06:09;153269.00;0.51;265.44;0.00;0.00;0.62;;;;;9.30;1.00;;;;;;2256413;61;939;-83
2021/11/07 05:08:36;108297.00;0.36;187.89;0.00;0.00;0.62;;;;;9.70;1.00;;;;;;2244742;61;1422;-84
2021/11/07 05:11:04;91257.00;0.30;158.48;0.00;0.00;0.62;;;;;9.90;1.00;;;;;;2245156;61;1027;-83
2021/11/07 05:13:31;44729.00;0.15;78.07;0.00;0.00;0.62;;;;;10.30;1.00;;;;;;2244966;61;998;-85
2021/11/07 05:15:59;237923.00;0.79;411.18;94058.00;0.31;163.31;;;;;10.40;1.00;;;;;;2241369;61;1059;-82
2021/11/07 05:18:26;80457.00;0.27;139.83;0.00;0.00;0.62;;;;;10.00;1.00;;;;;;2236400;61;2011;-81
2021/11/07 05:23:22;376001.00;1.25;648.55;96865.00;0.32;168.16;;;;;9.10;1.00;;;;;;2262580;61;1385;-82
2021/11/07 05:25:49;97291.00;0.32;168.90;0.00;0.00;0.62;;;;;9.90;1.00;;;;;;2257446;61;1041;-81
2021/11/07 05:28:16;47972.00;0.16;83.68;0.00;0.00;0.62;;;;;10.50;1.00;;;;;;2445607;40;2054;31
2021/11/07 05:30:43;356540.00;1.19;615.10;69386.00;0.23;120.70;;;;;10.90;1.00;;;;;;2258821;61;1405;-83
2021/11/07 05:33:11;52856.00;0.18;92.13;0.00;0.00;0.62;;;;;11.30;1.00;;;;;;2261033;61;993;-84
2021/11/07 05:38:06;492215.00;1.64;848.42;114393.00;0.38;198.41;;;;;10.10;1.00;;;;;;2262880;61;1910;-84
2021/11/07 05:45:29;185956.00;0.62;321.75;0.00;0.00;0.62;;;;;10.70;1.00;;;;;;2262349;61;1385;-81
2021/11/07 05:47:56;32109.00;0.11;56.23;0.00;0.00;0.62;;;;;11.30;1.00;;;;;;2257583;61;1459;-80
2021/11/07 05:50:25;9891.00;0.03;17.76;0.00;0.00;0.62;;;;;11.60;1.00;;;;;;2260872;61;982;-82
2021/11/07 05:52:53;107195.00;0.36;185.99;0.00;0.00;0.62;;;;;11.50;1.00;;;;;;2260725;61;952;-80
2021/11/07 05:55:20;35456.00;0.12;62.03;0.00;0.00;0.62;;;;;11.50;1.00;;;;;;2254196;61;983;-80
2021/11/07 05:57:47;62728.00;0.21;109.19;0.00;0.00;0.62;;;;;11.60;1.00;;;;;;2260704;61;1920;-81
2021/11/07 06:00:17;69669.00;0.23;121.19;0.00;0.00;0.62;;;;;11.20;1.00;;;;;;2257127;61;997;-80
2021/11/07 06:02:45;73835.00;0.25;128.39;0.00;0.00;0.62;;;;;10.90;1.00;;;;;;2260556;61;959;-79
2021/11/07 06:05:12;83293.00;0.28;144.73;0.00;0.00;0.62;;;;;10.70;1.00;;;;;;2260706;61;970;-81
2021/11/07 06:07:40;103617.00;0.35;179.81;0.00;0.00;0.62;;;;;10.30;1.00;;;;;;2257001;61;1348;-79
2021/11/07 06:10:08;159536.00;0.53;276.24;0.00;0.00;0.62;;;;;10.10;1.00;;;;;;2260645;61;997;-81
2021/11/07 06:12:35;6608.00;0.02;12.07;0.00;0.00;0.62;;;;;9.90;1.00;;;;;;2260846;61;972;-82
2021/11/07 06:15:02;47195.00;0.16;82.33;0.00;0.00;0.62;;;;;9.90;1.00;;;;;;2263763;61;992;-81
2021/11/07 06:17:29;248479.00;0.83;429.34;101367.00;0.34;175.93;;;;;9.40;1.00;;;;;;2263740;61;2002;-83
2021/11/07 06:22:23;136589.00;0.46;236.69;0.00;0.00;0.62;;;;;9.50;1.00;;;;;;2262836;61;1404;-81
2021/11/07 06:24:52;377301.00;1.26;650.79;96212.00;0.32;167.03;;;;;9.80;1.00;;;;;;2256307;61;919;-81
2021/11/07 06:29:48;92540.00;0.31;160.69;0.00;0.00;0.62;;;;;9.90;1.00;;;;;;2515544;40;3578;31
2021/11/07 06:34:42;75739.00;0.25;131.68;0.00;0.00;0.62;;;;;9.10;1.00;;;;;;2262693;61;1423;-82
2021/11/07 06:37:11;143075.00;0.48;247.87;0.00;0.00;0.62;;;;;8.80;1.00;;;;;;2261096;61;1313;-81
2021/11/07 06:39:38;466983.00;1.56;805.00;98515.00;0.33;171.01;;;;;8.50;1.00;;;;;;2257413;61;977;-82
2021/11/07 06:42:07;113516.00;0.38;196.90;0.00;0.00;0.62;;;;;8.10;1.00;;;;;;2260496;61;968;-80
2021/11/07 06:49:32;65075.00;0.22;113.25;0.00;0.00;0.62;;;;;8.30;1.00;;;;;;2262349;61;1203;-78
2021/11/07 06:51:59;100299.00;0.33;174.09;0.00;0.00;0.62;;;;;8.20;1.00;;;;;;2260981;61;904;-80
2021/11/07 06:54:27;426190.00;1.42;734.83;107121.00;0.36;185.86;;;;;7.70;1.00;;;;;;2261019;61;1020;-81
2021/11/07 06:56:54;153672.00;0.51;266.14;0.00;0.00;0.62;;;;;7.60;1.00;;;;;;2260663;61;1360;-77
2021/11/07 06:59:22;145876.00;0.49;252.70;0.00;0.00;0.62;;;;;6.90;1.00;;;;;;2261148;61;1928;-80
2021/11/07 07:01:49;520297.00;1.73;896.78;104275.00;0.35;180.95;;;;;6.50;1.00;;;;;;2257041;61;1023;-79
2021/11/07 07:04:16;31294.00;0.10;54.82;0.00;0.00;0.62;;;;;6.50;1.00;;;;;;2261089;61;992;-82
2021/11/07 07:06:44;100613.00;0.34;174.63;0.00;0.00;0.62;;;;;6.70;1.00;;;;;;2260882;61;1381;-80
2021/11/07 07:09:13;555801.00;1.85;957.96;84782.00;0.28;147.30;;;;;6.80;1.00;;;;;;2260298;61;964;-79
2021/11/07 07:11:43;33926.00;0.11;59.38;0.00;0.00;0.62;;;;;6.70;1.00;;;;;;2251484;61;998;-81
2021/11/07 07:14:13;102888.00;0.34;178.56;0.00;0.00;0.62;;;;;6.90;1.00;;;;;;2251419;61;1006;-80
2021/11/07 07:16:53;350533.00;1.17;604.78;57612.00;0.19;100.35;;;;;7.30;1.50;;;;;;2260927;61;1379;-80
2021/11/07 07:22:37;29614.00;0.10;51.91;0.00;0.00;0.62;;;;;8.10;1.00;;;;;;2249272;61;952;-81
2021/11/07 07:28:16;118766.00;0.40;205.95;0.00;0.00;0.62;;;;;8.70;1.00;;;;;;2252220;61;1261;-83
2021/11/07 07:30:51;17737.00;0.06;31.35;0.00;0.00;0.62;;;;;8.40;1.00;;;;;;2252605;61;1006;-83
2021/11/07 07:33:34;47365.00;0.16;82.63;0.00;0.00;0.62;;;;;8.10;1.00;;;;;;2246771;61;926;-82
2021/11/07 07:36:01;75803.00;0.25;131.79;0.00;0.00;0.62;;;;;8.20;1.00;;;;;;2252706;61;1035;-84
2021/11/07 07:43:25;95391.00;0.32;165.62;0.00;0.00;0.62;;;;;9.10;1.00;;;;;;2263432;61;1392;-79
2021/11/07 07:45:56;312441.00;1.04;539.31;91803.00;0.31;159.42;;;;;9.40;1.00;;;;;;2261636;61;1001;-81
2021/11/07 07:48:24;41656.00;0.14;72.75;0.00;0.00;0.62;;;;;9.60;1.00;;;;;;2257872;61;1457;-83
2021/11/07 07:50:51;70212.00;0.23;122.13;0.00;0.00;0.62;;;;;9.50;1.00;;;;;;2256989;61;964;-82
2021/11/07 07:53:22;172368.00;0.57;298.35;96789.00;0.32;168.03;;;;;9.90;1.00;;;;;;2253709;61;965;-81
2021/11/07 07:55:50;83592.00;0.28;145.24;0.00;0.00;0.62;;;;;9.60;1.00;;;;;;2246748;61;994;-84
2021/11/07 07:58:17;140606.00;0.47;243.62;0.00;0.00;0.62;;;;;9.70;1.00;;;;;;2253499;61;2000;-84
2021/11/07 08:00:44;334657.00;1.12;577.49;95339.00;0.32;165.53;;;;;9.40;1.00;;;;;;2256806;61;1058;-83
2021/11/07 08:03:11;25809.00;0.09;45.33;0.00;0.00;0.62;;;;;10.00;1.00;;;;;;2248963;61;1089;-83
2021/11/07 08:05:39;57759.00;0.19;100.60;0.00;0.00;0.62;;;;;10.40;1.00;;;;;;2252254;61;1005;-81
2021/11/07 08:08:06;297750.00;0.99;514.05;97670.00;0.33;169.55;;;;;10.50;1.00;;;;;;2497530;40;4056;31
2021/11/07 08:10:33;241230.00;0.80;416.87;30044.00;0.10;52.66;;;;;10.60;1.00;;;;;;2262064;61;1344;-83
2021/11/07 08:13:00;73613.00;0.25;128.00;0.00;0.00;0.62;;;;;11.20;1.00;;;;;;2261212;61;1281;-84
2021/11/07 08:15:27;240185.00;0.80;415.07;90309.00;0.30;156.84;;;;;11.70;1.00;;;;;;2254296;61;1436;-84
2021/11/07 08:17:54;19817.00;0.07;34.95;0.00;0.00;0.62;;;;;12.00;1.00;;;;;;2253071;61;1920;-84
2021/11/07 08:20:21;27936.00;0.09;49.01;0.00;0.00;0.62;;;;;12.20;1.00;;;;;;2246334;61;1026;-84
2021/11/07 08:30:17;34037.00;0.11;59.57;0.00;0.00;0.62;;;;;12.00;1.00;;;;;;2267063;61;1384;-83
2021/11/07 08:32:44;11164.00;0.04;19.97;0.00;0.00;0.62;;;;;12.00;1.00;;;;;;2268995;61;1072;-84
2021/11/07 08:35:11;43299.00;0.14;75.60;0.00;0.00;0.62;;;;;11.30;1.00;;;;;;2262551;61;1015;-83
2021/11/07 08:40:11;0.00;0.00;0.62;0.00;0.00;0.62;;;;;11.60;1.00;;;;;;2262800;61;1900;-84
2021/11/07 08:42:38;73361.00;0.24;127.57;0.00;0.00;0.62;;;;;11.70;1.00;;;;;;2253263;61;973;-84
2021/11/07 09:08:45;643786.00;2.15;1109.89;77304.00;0.26;134.38;;;;;12.50;1.00;;;;;;2263247;61;1226;-84
2021/11/07 09:23:35;196203.00;0.65;339.39;0.00;0.00;0.62;;;;;12.80;1.00;;;;;;2263093;61;1361;-85
2021/11/07 09:26:26;37406.00;0.12;65.40;0.00;0.00;0.62;;;;;12.40;1.00;;;;;;2256583;61;945;-83
2021/11/07 09:28:57;92932.00;0.31;161.37;0.00;0.00;0.62;;;;;12.20;1.00;;;;;;2240704;61;929;-83
2021/11/07 09:31:49;194781.00;0.65;336.94;0.00;0.00;0.62;;;;;12.20;1.00;;;;;;2240750;61;987;-85
2021/11/07 09:36:48;97388.00;0.32;169.06;0.00;0.00;0.62;;;;;12.10;1.00;;;;;;2262785;61;1409;-86
2021/11/07 09:46:43;286112.00;0.95;494.05;0.00;0.00;0.62;;;;;12.10;1.00;;;;;;2458958;40;3690;31
2021/11/07 09:49:16;701786.00;2.34;1210.34;38970.00;0.13;68.11;;;;;12.10;1.00;;;;;;2258529;61;1341;-83
2021/11/07 09:51:47;156398.00;0.52;270.83;0.00;0.00;0.62;;;;;12.00;1.00;;;;;;2260846;61;1051;-82
2021/11/07 09:59:10;126794.00;0.42;219.80;0.00;0.00;0.62;;;;;11.60;1.00;;;;;;2262944;61;1968;-80
2021/11/07 10:06:44;129351.00;0.43;224.21;0.00;0.00;0.62;;;;;11.60;1.00;;;;;;2262439;61;1440;-82
2021/11/07 10:09:14;173450.00;0.58;300.21;0.00;0.00;0.62;;;;;11.50;1.00;;;;;;2260888;61;915;-83
2021/11/07 10:26:35;1392249.00;4.64;2441.96;286666.00;0.96;495.00;;;;;12.00;1.00;;;;;;2262312;61;1511;-82
2021/11/07 10:29:04;1263933.00;4.21;2206.25;172890.00;0.58;299.24;;;;;11.80;1.00;;;;;;2260396;61;944;-81
2021/11/07 10:31:37;1610880.00;5.37;2853.55;261188.00;0.87;451.19;;;;;11.90;1.00;;;;;;2256846;61;1010;-85
2021/11/07 10:54:25;458106.00;1.53;789.73;15379.00;0.05;27.27;;;;;12.40;1.00;;;;;;2263054;61;1392;-82
2021/11/07 10:59:22;1221243.00;4.07;2128.67;133836.00;0.45;231.94;;;;;13.00;1.00;;;;;;2262606;61;1965;-85
2021/11/07 11:01:51;506752.00;1.69;873.45;110727.00;0.37;192.08;;;;;12.70;1.00;;;;;;2261316;61;942;-83
2021/11/07 11:16:55;94013.00;0.31;163.24;0.00;0.00;0.62;;;;;13.70;1.00;;;;;;2267522;61;1368;-86
2021/11/07 11:22:13;83050.00;0.28;144.31;0.00;0.00;0.62;;;;;14.20;1.00;;;;;;2262815;61;1396;-84
2021/11/07 11:29:54;31089.00;0.10;54.47;0.00;0.00;0.62;;;;;14.70;1.00;;;;;;2263020;61;1320;-89
2021/11/07 11:34:58;137564.00;0.46;238.37;0.00;0.00;0.62;;;;;14.40;1.00;;;;;;2263204;61;1320;-88
2021/11/07 12:15:03;324429.00;1.08;559.91;0.00;0.00;0.62;;;;;15.20;1.00;;;;;;2263221;61;983;-87
2021/11/07 13:22:13;56548.00;0.19;98.51;0.00;0.00;0.62;;;;;15.40;1.00;;;;;;2263057;61;1313;-86
2021/11/07 14:04:17;756778.00;2.52;1305.84;0.00;0.00;0.62;;;;;15.40;1.00;;;;;;2262643;61;1309;-88
2021/11/07 15:16:02;332556.00;1.11;573.88;85904.00;0.29;149.23;;;;;13.70;1.00;;;;;;2266212;61;1220;-83
2021/11/07 16:05:57;1300051.00;4.33;2272.20;148269.00;0.49;256.82;;;;;13.50;1.00;;;;;;2465517;40;3983;31
2021/11/07 16:30:38;259755.00;0.87;448.73;0.00;0.00;0.62;;;;;14.00;1.00;;;;;;2267391;61;963;-86
2021/11/07 16:43:00;15345.00;0.05;27.21;0.00;0.00;0.62;;;;;13.60;1.00;;;;;;2267148;61;941;-86
2021/11/07 17:02:46;115844.00;0.39;200.91;0.00;0.00;0.62;;;;;13.20;1.00;;;;;;2267396;61;1313;-85
2021/11/07 17:05:18;93439.00;0.31;162.25;0.00;0.00;0.62;;;;;13.50;1.00;;;;;;2504275;40;3918;31
2021/11/07 18:24:35;30848.00;0.10;54.05;0.00;0.00;0.62;;;;;13.80;1.00;;;;;;2464572;40;3506;31
2021/11/07 18:39:27;187543.00;0.63;324.48;0.00;0.00;0.62;;;;;14.70;1.00;;;;;;2267110;61;1960;-88
2021/11/07 18:44:24;219974.00;0.73;380.30;12086.00;0.04;21.56;;;;;15.00;1.00;;;;;;2266852;61;1304;-87
2021/11/07 18:49:18;26889.00;0.09;47.20;0.00;0.00;0.62;;;;;14.40;1.00;;;;;;2266765;61;1284;-87
2021/11/07 19:28:55;75472.00;0.25;131.22;0.00;0.00;0.62;;;;;13.50;1.00;;;;;;2430352;40;3766;31
2021/11/07 20:06:13;297128.00;0.99;512.98;48359.00;0.16;84.35;;;;;14.30;1.00;;;;;;2267502;61;1321;-88
2021/11/07 20:11:08;1190113.00;3.97;2072.35;128562.00;0.43;222.85;;;;;13.50;1.00;;;;;;2390674;40;3777;31
2021/11/07 20:25:58;384266.00;1.28;662.76;84404.00;0.28;146.64;;;;;13.30;1.00;;;;;;2267449;61;1336;-87
2021/11/07 21:05:36;52502.00;0.18;91.51;0.00;0.00;0.62;;;;;13.30;1.00;;;;;;2267318;61;911;-89
2021/11/07 21:55:22;65211.00;0.22;113.48;0.00;0.00;0.62;;;;;15.20;1.00;;;;;;2267442;61;1166;-88
2021/11/07 22:40:09;12057.00;0.04;21.51;0.00;0.00;0.62;;;;;12.80;1.00;;;;;;2267406;61;1951;-87
2021/11/07 23:09:57;78517.00;0.26;136.48;0.00;0.00;0.62;;;;;14.40;1.00;;;;;;2267696;61;1300;-88
2021/11/07 23:39:43;1082638.00;3.61;1879.40;134654.00;0.45;233.35;;;;;15.50;1.00;;;;;;2267492;61;1904;-87
2021/11/07 23:44:38;265241.00;0.88;458.16;0.00;0.00;0.62;;;;;15.60;1.00;;;;;;2270792;61;1407;-86
2021/11/07 23:47:05;392436.00;1.31;676.80;0.00;0.00;0.62;;;;;15.70;1.00;;;;;;2268886;61;1487;-86
2021/11/07 23:49:32;261212.00;0.87;451.23;0.00;0.00;0.62;;;;;15.30;1.00;;;;;;2268904;61;979;-86
2021/11/07 23:54:48;37144.00;0.12;64.95;0.00;0.00;0.62;;;;;13.70;1.00;;;;;;2265665;61;1101;-87
2021/11/07 23:57:26;495192.00;1.65;853.55;0.00;0.00;0.62;;;;;13.90;1.00;;;;;;2265191;61;961;-88
2021/11/07 23:59:54;327899.00;1.09;565.87;0.00;0.00;0.62;;;;;13.90;1.00;;;;;;2268935;61;1985;-87
